Flight Track Log - Related Links

Times and Time Zones

All times are in EDT time to prevent confusion due to time zone crossing. See the JZA8343 flight status page for this flight to view local times or setup timezone preferences in your user account.


Time Position Orientation Groundspeed Altitude Reporting Facility
EDT Latitude Longitude Course Direction KTS MPH feet Rate Location/Type
Tue 09:58:15 PM 49.9000 -97.2333 360° North 150 173 1,500  Level Winnipeg Center
Tue 09:59:15 PM 49.9500 -97.2333 180° South 200 230 3,100 -10 Climbing Winnipeg Center
Tue 10:06:52 PM 50.4523 -103.1850 96° East  Level FlightAware Approximate
Tue 10:07:52 PM 50.5651 -103.9632 96° East  Level FlightAware Approximate
Tue 10:08:52 PM 50.6726 -104.7449 96° East  Level FlightAware Approximate
Tue 10:09:52 PM 50.7832 -105.5269 96° East  Level FlightAware Approximate
Tue 10:10:52 PM 50.8444 -106.3244 96° East  Level FlightAware Approximate
Tue 10:11:52 PM 50.9002 -107.1238 95° East  Level FlightAware Approximate
Tue 10:12:52 PM 50.9504 -107.9250 95° East  Level FlightAware Approximate
Tue 10:13:52 PM 50.9952 -108.7279 94° East  Level FlightAware Approximate
Tue 10:14:52 PM 51.2027 -109.4196 95° East  Level FlightAware Approximate
Tue 10:15:52 PM 51.2546 -110.2247 94° East  Level FlightAware Approximate
Tue 10:16:52 PM 51.2784 -111.0335 94° East  Level FlightAware Approximate
Tue 10:17:52 PM 51.3000 -111.8437 93° East  Level FlightAware Approximate
Tue 10:18:52 PM 51.3001 -112.6554 92° East  Level FlightAware Approximate
Tue 10:19:52 PM 51.1976 -113.4459 91° East  Level FlightAware Approximate
Tue 10:20:52 PM 51.1000 -114.0167 90° East  Level FlightAware Approximate
Tue 10:21:52 PM 51.6009 -114.1482 92° East  Level Estimated
Tue 10:22:52 PM 49.9000 -97.2333 180° South  Level FlightAware Approximate
Tue 10:23:52 PM 50.0112 -98.0030 104° East  Level FlightAware Approximate
Tue 10:24:52 PM 50.1173 -98.7762 103° East  Level FlightAware Approximate
Tue 10:25:52 PM 50.2183 -99.5528 102° East  Level FlightAware Approximate
Tue 10:26:52 PM 50.3140 -100.3326 101° East  Level FlightAware Approximate
Tue 10:27:52 PM 50.4045 -101.1154 100° East  Level FlightAware Approximate
Tue 10:28:52 PM 50.4898 -101.9011 100° East  Level FlightAware Approximate
Tue 10:29:52 PM 50.5697 -102.6896 99° East  Level FlightAware Approximate
Tue 10:30:52 PM 50.6443 -103.4807 98° East  Level FlightAware Approximate
Tue 10:31:52 PM 50.7135 -104.2741 98° East  Level FlightAware Approximate
Tue 10:32:52 PM 50.7773 -105.0699 97° East  Level FlightAware Approximate
Tue 10:33:52 PM 50.8357 -105.8677 96° East  Level FlightAware Approximate
Tue 10:34:52 PM 50.8886 -106.6675 96° East  Level FlightAware Approximate
Tue 10:35:52 PM 50.9361 -107.4689 95° East  Level FlightAware Approximate
Tue 10:36:52 PM 50.9781 -108.2719 95° East  Level FlightAware Approximate
Tue 10:37:52 PM 51.0145 -109.0763 94° East  Level FlightAware Approximate
Tue 10:38:52 PM 51.0454 -109.8818 93° East  Level FlightAware Approximate
Tue 10:39:52 PM 51.0708 -110.6883 93° East  Level FlightAware Approximate
Tue 10:40:52 PM 51.0906 -111.4957 92° East  Level FlightAware Approximate
Tue 10:41:52 PM 51.1049 -112.3035 91° East  Level FlightAware Approximate
Tue 10:42:52 PM 51.1135 -113.1118 91° East  Level FlightAware Approximate
Tue 10:43:52 PM 51.1167 -113.9203 90° East  Level FlightAware Approximate
Tue 10:44:52 PM 51.1000 -114.0167 90° East  Level FlightAware Approximate
Tue 10:45:52 PM 51.6009 -114.1482 92° East  Level Estimated
Tue 10:46:52 PM 49.9000 -97.2333 180° South  Level FlightAware Approximate
Tue 10:47:52 PM 50.0112 -98.0030 104° East  Level FlightAware Approximate
Tue 10:48:52 PM 50.1173 -98.7762 103° East  Level FlightAware Approximate
Tue 10:49:52 PM 50.2183 -99.5528 102° East  Level FlightAware Approximate
Tue 10:50:52 PM 50.3140 -100.3326 101° East  Level FlightAware Approximate
Tue 10:51:52 PM 50.4045 -101.1154 100° East  Level FlightAware Approximate
Tue 10:52:52 PM 50.4898 -101.9011 100° East  Level FlightAware Approximate
Tue 10:53:52 PM 50.5697 -102.6896 99° East  Level FlightAware Approximate
Tue 10:54:52 PM 50.6443 -103.4807 98° East  Level FlightAware Approximate
Tue 10:55:52 PM 50.7135 -104.2741 98° East  Level FlightAware Approximate
Tue 10:56:52 PM 50.7773 -105.0699 97° East  Level FlightAware Approximate
Tue 10:57:52 PM 50.8357 -105.8677 96° East  Level FlightAware Approximate
Tue 10:58:52 PM 50.8886 -106.6675 96° East  Level FlightAware Approximate
Tue 10:59:52 PM 50.9361 -107.4689 95° East  Level FlightAware Approximate
Tue 11:00:52 PM 50.9781 -108.2719 95° East  Level FlightAware Approximate
Tue 11:01:52 PM 51.0145 -109.0763 94° East  Level FlightAware Approximate
Tue 11:02:52 PM 51.0454 -109.8818 93° East  Level FlightAware Approximate
Tue 11:03:52 PM 51.0708 -110.6883 93° East  Level FlightAware Approximate
Tue 11:04:52 PM 51.0906 -111.4957 92° East  Level FlightAware Approximate
Tue 11:05:52 PM 51.1049 -112.3035 91° East  Level FlightAware Approximate
Tue 11:06:52 PM 51.1135 -113.1118 91° East  Level FlightAware Approximate
Tue 11:07:52 PM 51.1167 -113.9203 90° East  Level FlightAware Approximate
Tue 11:08:52 PM 51.1000 -114.0167 90° East  Level FlightAware Approximate
Tue 11:09:52 PM 51.6009 -114.1482 92° East  Level Estimated
Tue 11:10:52 PM 49.9894 -97.9395 103° East  Level FlightAware Approximate
Tue 11:11:52 PM 50.0119 -98.0985 103° East  Level FlightAware Approximate
Tue 11:12:52 PM 50.0342 -98.2578 102° East  Level FlightAware Approximate
Tue 11:13:52 PM 50.0563 -98.4172 102° East  Level FlightAware Approximate
Tue 11:14:52 PM 50.0781 -98.5767 102° East  Level FlightAware Approximate
Tue 11:15:52 PM 50.0998 -98.7364 102° East  Level FlightAware Approximate
Tue 11:16:52 PM 50.1212 -98.8962 102° East  Level FlightAware Approximate
Tue 11:17:52 PM 50.1424 -99.0562 102° East  Level FlightAware Approximate
Tue 11:18:52 PM 50.1634 -99.2163 102° East  Level FlightAware Approximate
Tue 11:19:52 PM 50.1842 -99.3765 102° East  Level FlightAware Approximate
Tue 11:20:39 PM 49.8833 -97.2333 327° Northwest 20 23 700  Level Winnipeg Center
Tue 11:21:39 PM 49.9000 -97.2500 302° West 180 207 1,400 1,200 Climbing Winnipeg Center
Tue 11:22:39 PM 49.9333 -97.3333 281° West 250 288 3,100 2,450 Climbing Winnipeg Center
Tue 11:23:39 PM 49.9500 -97.4667 270° West 280 322 6,300 3,200 Climbing Winnipeg Center
Tue 11:24:39 PM 49.9500 -97.5667 281° West 280 322 9,500 2,800 Climbing Winnipeg Center
Tue 11:25:39 PM 49.9667 -97.7000 280° West 300 345 11,900 2,100 Climbing Winnipeg Center
Tue 11:26:39 PM 49.9833 -97.8500 280° West 340 391 13,700 1,700 Climbing Winnipeg Center
Tue 11:27:39 PM 50.0000 -98.0000 278° West 370 426 15,300 1,600 Climbing Winnipeg Center
Tue 11:28:39 PM 50.0167 -98.1833 279° West 400 460 16,900 1,550 Climbing Winnipeg Center
Tue 11:29:39 PM 50.0333 -98.3500 286° West 410 472 18,400 1,500 Climbing Winnipeg Center
Tue 11:30:39 PM 50.0667 -98.5333 286° West 420 483 19,900 1,400 Climbing Winnipeg Center
Tue 11:31:39 PM 50.1000 -98.7167 286° West 430 495 21,200 1,400 Climbing Winnipeg Center
Tue 11:32:39 PM 50.1333 -98.9000 286° West 440 506 22,700 1,400 Climbing Winnipeg Center
Tue 11:33:39 PM 50.1667 -99.0833 277° West 440 506 24,000 1,150 Climbing Winnipeg Center
Tue 11:34:39 PM 50.1833 -99.3000 286° West 450 518 25,000 1,200 Climbing Winnipeg Center
Tue 11:35:39 PM 50.2167 -99.4833 278° West 450 518 26,400 1,450 Climbing Winnipeg Center
Tue 11:36:39 PM 50.2333 -99.6667 286° West 450 518 27,900 1,550 Climbing Winnipeg Center
Tue 11:37:39 PM 50.2667 -99.8500 278° West 440 506 29,500 1,650 Climbing Winnipeg Center
Tue 11:38:39 PM 50.2833 -100.0333 286° West 430 495 31,200 1,600 Climbing Winnipeg Center
Tue 11:39:39 PM 50.3167 -100.2167 286° West 420 483 32,700 1,250 Climbing Winnipeg Center
Tue 11:40:39 PM 50.3500 -100.4000 279° West 420 483 33,700 1,050 Climbing Winnipeg Center
Tue 11:41:39 PM 50.3667 -100.5667 278° West 420 483 34,800 1,050 Climbing Winnipeg Center
Tue 11:42:39 PM 50.3833 -100.7500 286° West 420 483 35,800 1,050 Climbing Winnipeg Center
Tue 11:43:39 PM 50.4167 -100.9333 278° West 420 483 36,900 1,000 Climbing Winnipeg Center
Tue 11:44:39 PM 50.4333 -101.1167 279° West 410 472 37,800 550 Climbing Winnipeg Center
Tue 11:45:39 PM 50.4500 -101.2833 286° West 410 472 38,000 100 Climbing Winnipeg Center
Tue 11:46:39 PM 50.4833 -101.4667 278° West 420 483 38,000  Level Winnipeg Center
Tue 11:47:39 PM 50.5000 -101.6500 286° West 430 495 38,000  Level Winnipeg Center
Tue 11:48:39 PM 50.5333 -101.8333 278° West 430 495 38,000  Level Winnipeg Center
Tue 11:49:39 PM 50.5500 -102.0333 286° West 430 495 38,000  Level Winnipeg Center
Tue 11:50:39 PM 50.5833 -102.2167 280° West 430 495 38,000  Level Winnipeg Center
Tue 11:51:39 PM 50.6000 -102.3667 277° West 430 495 38,000  Level Winnipeg Center
Tue 11:52:39 PM 50.6167 -102.5833 279° West 430 495 38,000  Level Winnipeg Center
Tue 11:53:39 PM 50.6333 -102.7500 284° West 430 495 38,000  Level Winnipeg Center
Tue 11:54:39 PM 50.6667 -102.9667 280° West 430 495 38,000  Level Winnipeg Center
Tue 11:55:39 PM 50.6833 -103.1167 277° West 440 506 38,000  Level Winnipeg Center
Tue 11:56:39 PM 50.7000 -103.3333 288° West 440 506 38,000  Level Winnipeg Center
Tue 11:57:39 PM 50.7333 -103.5000 277° West 440 506 38,000  Level Winnipeg Center
Tue 11:58:39 PM 50.7500 -103.7167 278° West 440 506 38,000  Level Winnipeg Center
Tue 11:59:39 PM 50.7667 -103.9000 279° West 440 506 38,000  Level Winnipeg Center
Wed 12:00:39 AM 50.7833 -104.0667 277° West 440 506 38,000  Level Winnipeg Center
Wed 12:01:39 AM 50.8000 -104.2833 278° West 440 506 38,000  Level Winnipeg Center
Wed 12:02:39 AM 50.8167 -104.4667 285° West 440 506 38,000  Level Winnipeg Center
Wed 12:03:39 AM 50.8500 -104.6667 278° West 440 506 38,000  Level Winnipeg Center
Wed 12:04:39 AM 50.8667 -104.8500 278° West 440 506 38,000  Level Winnipeg Center
Wed 12:05:39 AM 50.8833 -105.0333 278° West 440 506 38,000  Level Winnipeg Center
Wed 12:06:39 AM 50.9000 -105.2333 270° West 440 506 38,000  Level Winnipeg Center
Wed 12:07:39 AM 50.9000 -105.4500 286° West 450 518 38,000  Level Winnipeg Center
Wed 12:08:39 AM 50.9333 -105.6333 278° West 450 518 38,000  Level Winnipeg Center
Wed 12:09:39 AM 50.9500 -105.8333 278° West 450 518 38,000  Level Winnipeg Center
Wed 12:10:50 AM 50.9667 -106.0333 278° West 450 518 38,000  Level Edmonton Center
Wed 12:11:50 AM 50.9833 -106.2167 270° West 440 506 38,000  Level Edmonton Center
Wed 12:12:50 AM 50.9833 -106.4333 278° West 440 506 38,000  Level Edmonton Center
Wed 12:13:50 AM 51.0000 -106.6333 278° West 440 506 38,000  Level Edmonton Center
Wed 12:14:50 AM 51.0167 -106.8167 278° West 440 506 38,000  Level Edmonton Center
Wed 12:15:50 AM 51.0333 -107.0000 278° West 440 506 38,000  Level Edmonton Center
Wed 12:16:50 AM 51.0500 -107.2000 285° West 440 506 38,000  Level Edmonton Center
Wed 12:17:50 AM 51.0833 -107.4000 270° West 440 506 38,000  Level Edmonton Center
Wed 12:18:50 AM 51.0833 -107.6000 277° West 440 506 38,000  Level Edmonton Center
Wed 12:19:50 AM 51.1000 -107.8167 278° West 440 506 38,000  Level Edmonton Center
Wed 12:20:50 AM 51.1167 -108.0000 270° West 450 518 38,000  Level Edmonton Center
Wed 12:21:50 AM 51.1167 -108.1833 278° West 440 506 38,000  Level Edmonton Center
Wed 12:22:50 AM 51.1333 -108.3833 278° West 450 518 38,000  Level Edmonton Center
Wed 12:23:50 AM 51.1500 -108.5667 270° West 450 518 38,000  Level Edmonton Center
Wed 12:24:50 AM 51.1500 -108.7833 285° West 450 518 38,000  Level Edmonton Center
Wed 12:25:50 AM 51.1833 -108.9833 270° West 450 518 38,000  Level Edmonton Center
Wed 12:26:50 AM 51.1833 -109.2000 278° West 450 518 38,000  Level Edmonton Center
Wed 12:27:50 AM 51.2000 -109.3833 277° West 450 518 38,000  Level Edmonton Center
Wed 12:28:50 AM 51.2167 -109.6000 270° West 450 518 38,000  Level Edmonton Center
Wed 12:29:50 AM 51.2167 -109.7833 270° West 450 518 38,000  Level Edmonton Center
Wed 12:30:50 AM 51.2167 -110.0000 278° West 450 518 38,000  Level Edmonton Center
Wed 12:31:50 AM 51.2333 -110.2000 270° West 450 518 38,000  Level Edmonton Center
Wed 12:32:50 AM 51.2333 -110.4167 278° West 450 518 38,000  Level Edmonton Center
Wed 12:33:50 AM 51.2500 -110.6000 270° West 450 518 38,000  Level Edmonton Center
Wed 12:34:50 AM 51.2500 -110.8000 277° West 450 518 38,000  Level Edmonton Center
Wed 12:35:50 AM 51.2667 -111.0167 270° West 450 518 38,000  Level Edmonton Center
Wed 12:36:50 AM 51.2667 -111.2000 270° West 450 518 38,000  Level Edmonton Center
Wed 12:37:50 AM 51.2667 -111.4167 278° West 450 518 38,000  Level Edmonton Center
Wed 12:38:50 AM 51.2833 -111.6000 270° West 450 518 38,000  Level Edmonton Center
Wed 12:39:50 AM 51.2833 -111.8167 270° West 450 518 38,000 -950 Level Edmonton Center
Wed 12:40:50 AM 51.2833 -112.0167 263° West 450 518 36,100 -2,600 Descending Edmonton Center
Wed 12:41:50 AM 51.2667 -112.2333 270° West 450 518 32,800 -3,250 Descending Edmonton Center
Wed 12:42:50 AM 51.2667 -112.4167 278° West 440 506 29,600 -3,250 Descending Edmonton Center
Wed 12:43:50 AM 51.2833 -112.6167 270° West 430 495 26,300 -3,400 Descending Edmonton Center
Wed 12:44:50 AM 51.2833 -112.8000 262° West 420 483 22,800 -3,350 Descending Edmonton Center
Wed 12:45:50 AM 51.2667 -112.9833 270° West 410 472 19,600 -3,350 Descending Edmonton Center
Wed 12:46:50 AM 51.2667 -113.1500 278° West 400 460 16,100 -3,300 Descending Edmonton Center
Wed 12:47:50 AM 51.2833 -113.3333 270° West 390 449 13,000 -2,500 Descending Edmonton Center
Wed 12:48:50 AM 51.2833 -113.5000 259° West 360 414 11,100 -1,550 Descending Edmonton Center
Wed 12:49:50 AM 51.2667 -113.6333 283° West 310 357 9,900 -1,350 Descending Edmonton Center
Wed 12:50:50 AM 51.2833 -113.7500 270° West 290 334 8,400 -1,650 Descending Edmonton Center
Wed 12:51:50 AM 51.2833 -113.8833 255° West 270 311 6,600 -1,500 Descending Edmonton Center
Wed 12:52:50 AM 51.2667 -113.9833 212° Southwest 270 311 5,400 -700 Descending Edmonton Center
Wed 12:53:50 AM 51.2167 -114.0333 189° South 220 253 5,200 -300 Descending Edmonton Center
Wed 12:54:50 AM 51.1500 -114.0500 163° South 200 230 4,800 -650 Descending Edmonton Center
Wed 12:55:50 AM 51.1167 -114.0333 163° South 160 184 3,900 -900 Descending Edmonton Center

Login

Don't have an account? Register now (free) for customized features, flight alerts, and more!